createdAt,value
2017-08-31T00:00:07.532Z,0
2017-08-31T00:01:07.244Z,0
2017-08-31T00:02:22.202Z,0
2017-08-31T00:03:07.275Z,0
2017-08-31T00:05:22.268Z,0
2017-08-31T00:06:07.658Z,0
2017-08-31T00:07:07.702Z,0
2017-08-31T00:08:07.721Z,0
2017-08-31T00:09:07.760Z,0
2017-08-31T00:10:22.373Z,0
2017-08-31T00:11:07.816Z,0
2017-08-31T00:12:07.805Z,0
2017-08-31T00:13:07.849Z,0
2017-08-31T00:14:07.883Z,0
2017-08-31T00:15:07.884Z,0
2017-08-31T00:16:22.228Z,0
2017-08-31T00:17:07.342Z,0
2017-08-31T00:18:08.004Z,0
2017-08-31T00:19:08.019Z,0
2017-08-31T00:20:07.713Z,0
2017-08-31T00:21:22.668Z,0
2017-08-31T00:22:07.442Z,0
2017-08-31T00:23:22.733Z,0
2017-08-31T00:24:08.136Z,0
2017-08-31T00:25:08.422Z,0
2017-08-31T00:26:08.170Z,0
2017-08-31T00:27:08.258Z,0
2017-08-31T00:28:08.229Z,0
2017-08-31T00:29:22.882Z,0
2017-08-31T00:30:08.288Z,0
2017-08-31T00:31:08.301Z,0
2017-08-31T00:32:22.952Z,0
2017-08-31T00:34:07.770Z,0
2017-08-31T00:35:08.706Z,0
2017-08-31T00:36:08.441Z,0
2017-08-31T00:37:23.080Z,0
2017-08-31T00:38:08.506Z,0
2017-08-31T00:39:08.517Z,0
2017-08-31T00:40:08.567Z,0
2017-08-31T00:42:08.601Z,0
2017-08-31T00:43:23.228Z,0
2017-08-31T00:44:08.659Z,0
2017-08-31T00:45:23.288Z,0
2017-08-31T00:46:23.318Z,0
2017-08-31T00:47:23.320Z,0
2017-08-31T00:48:08.730Z,0
2017-08-31T00:49:08.777Z,0
2017-08-31T00:50:08.477Z,0
2017-08-31T00:51:08.840Z,0
2017-08-31T00:52:08.844Z,0
2017-08-31T00:53:23.497Z,0
2017-08-31T00:54:08.889Z,0
2017-08-31T00:58:08.686Z,0
2017-08-31T00:59:23.652Z,0
2017-08-31T01:00:09.042Z,0
2017-08-31T01:02:08.797Z,0
2017-08-31T01:03:23.417Z,0
2017-08-31T01:04:08.852Z,0
2017-08-31T01:05:09.195Z,0
2017-08-31T01:06:08.914Z,0
2017-08-31T01:07:08.923Z,0
2017-08-31T01:08:23.565Z,0
2017-08-31T01:09:23.886Z,0
2017-08-31T01:10:09.304Z,0
2017-08-31T01:11:09.326Z,0
2017-08-31T01:12:09.354Z,0
2017-08-31T01:13:09.401Z,0
2017-08-31T01:14:09.091Z,0
2017-08-31T01:15:24.068Z,0
2017-08-31T01:16:09.470Z,0
2017-08-31T01:17:09.475Z,0
2017-08-31T01:18:09.188Z,0
2017-08-31T01:19:09.530Z,0
2017-08-31T01:20:24.204Z,0
2017-08-31T01:21:09.595Z,0
2017-08-31T01:22:09.614Z,0
2017-08-31T01:23:09.641Z,0
2017-08-31T01:24:24.274Z,0
2017-08-31T01:26:09.700Z,0
2017-08-31T01:27:09.453Z,0
2017-08-31T01:28:09.760Z,0
2017-08-31T01:29:09.472Z,0
2017-08-31T01:30:09.841Z,0
2017-08-31T01:31:09.850Z,0
2017-08-31T01:32:09.865Z,0
2017-08-31T01:33:24.492Z,0
2017-08-31T01:34:09.912Z,0
2017-08-31T01:36:09.341Z,0
2017-08-31T01:37:24.287Z,0
2017-08-31T01:38:09.698Z,0
2017-08-31T01:40:24.693Z,0
2017-08-31T01:41:09.805Z,0
2017-08-31T01:42:09.818Z,0
2017-08-31T01:43:09.828Z,0
2017-08-31T01:44:24.803Z,0
2017-08-31T01:45:09.892Z,0
2017-08-31T01:46:24.871Z,0
2017-08-31T01:47:10.263Z,0
2017-08-31T01:48:10.267Z,0
2017-08-31T01:49:10.351Z,0
2017-08-31T01:50:10.318Z,0
2017-08-31T01:51:09.733Z,0
2017-08-31T01:52:10.352Z,0
2017-08-31T01:53:10.418Z,0
2017-08-31T01:54:10.476Z,0
2017-08-31T01:55:24.764Z,0
2017-08-31T01:56:25.101Z,0
2017-08-31T01:57:10.475Z,0
2017-08-31T01:58:10.552Z,0
2017-08-31T01:59:10.543Z,0
2017-08-31T02:00:10.275Z,0
2017-08-31T02:01:25.197Z,0
2017-08-31T02:02:10.320Z,0
2017-08-31T02:03:10.624Z,0
2017-08-31T02:04:10.346Z,0
2017-08-31T02:05:10.389Z,0
2017-08-31T02:06:10.726Z,0
2017-08-31T02:07:10.113Z,0
2017-08-31T02:08:25.396Z,0
2017-08-31T02:10:25.463Z,0
2017-08-31T02:12:25.472Z,0
2017-08-31T02:13:10.924Z,0
2017-08-31T02:14:10.604Z,0
2017-08-31T02:15:25.573Z,0
2017-08-31T02:16:11.001Z,0
2017-08-31T02:17:11.017Z,0
2017-08-31T02:18:10.714Z,0
2017-08-31T02:19:25.677Z,0
2017-08-31T02:20:25.703Z,0
2017-08-31T02:21:11.120Z,0
2017-08-31T02:22:11.130Z,0
2017-08-31T02:23:11.169Z,0
2017-08-31T02:24:11.153Z,0
2017-08-31T02:25:11.212Z,0
2017-08-31T02:26:11.249Z,0
2017-08-31T02:27:25.892Z,0
2017-08-31T02:28:25.910Z,0
2017-08-31T02:29:11.328Z,0
2017-08-31T02:30:11.329Z,0
2017-08-31T02:31:11.357Z,0
2017-08-31T02:32:26.001Z,0
2017-08-31T02:33:11.412Z,0
2017-08-31T02:34:11.443Z,0
2017-08-31T02:35:11.459Z,0
2017-08-31T02:37:11.511Z,0
2017-08-31T02:38:11.234Z,0
2017-08-31T02:39:11.576Z,0
2017-08-31T02:40:11.610Z,0
2017-08-31T02:41:11.607Z,0
2017-08-31T02:43:26.281Z,0
2017-08-31T02:44:11.713Z,0
2017-08-31T02:45:11.428Z,0
2017-08-31T02:46:11.733Z,0
2017-08-31T02:47:11.775Z,0
2017-08-31T02:48:11.799Z,0
2017-08-31T02:49:26.446Z,0
2017-08-31T02:50:11.829Z,0
2017-08-31T02:51:11.880Z,0
2017-08-31T02:52:11.910Z,0
2017-08-31T02:53:11.922Z,0
2017-08-31T02:54:11.941Z,0
2017-08-31T02:55:11.957Z,0
2017-08-31T02:56:26.623Z,0
2017-08-31T02:57:12.058Z,0
2017-08-31T02:58:12.044Z,0
2017-08-31T02:59:12.093Z,0
2017-08-31T03:00:12.096Z,0
2017-08-31T03:01:12.136Z,0
2017-08-31T03:02:12.143Z,0
2017-08-31T03:03:12.195Z,0
2017-08-31T03:04:12.243Z,0
2017-08-31T03:05:12.232Z,0
2017-08-31T03:06:12.264Z,0
2017-08-31T03:07:12.298Z,0
2017-08-31T03:08:12.311Z,0
2017-08-31T03:09:26.937Z,0
2017-08-31T03:10:12.374Z,0
2017-08-31T03:11:12.056Z,0
2017-08-31T03:12:12.152Z,0
2017-08-31T03:13:27.058Z,0
2017-08-31T03:14:12.474Z,0
2017-08-31T03:15:27.122Z,0
2017-08-31T03:16:26.487Z,0
2017-08-31T03:17:12.248Z,0
2017-08-31T03:18:11.933Z,0
2017-08-31T03:19:12.650Z,0
2017-08-31T03:20:12.320Z,0
2017-08-31T03:21:12.643Z,0
2017-08-31T03:22:12.365Z,0
2017-08-31T03:23:12.706Z,0
2017-08-31T03:24:12.409Z,0
2017-08-31T03:25:12.762Z,0
2017-08-31T03:26:12.783Z,0
2017-08-31T03:27:27.088Z,0
2017-08-31T03:28:12.809Z,0
2017-08-31T03:29:12.847Z,0
2017-08-31T03:30:12.910Z,0
2017-08-31T03:31:27.523Z,0
2017-08-31T03:32:12.910Z,0
2017-08-31T03:33:12.641Z,0
2017-08-31T03:34:12.984Z,0
2017-08-31T03:35:12.700Z,0
2017-08-31T03:36:13.007Z,0
2017-08-31T03:37:27.357Z,0
2017-08-31T03:38:12.788Z,0
2017-08-31T03:40:13.145Z,0
2017-08-31T03:41:13.145Z,0
2017-08-31T03:42:27.473Z,0
2017-08-31T03:43:13.201Z,0
2017-08-31T03:44:27.850Z,0
2017-08-31T03:45:13.287Z,0
2017-08-31T03:46:13.283Z,0
2017-08-31T03:48:13.008Z,0
2017-08-31T03:49:27.646Z,0
2017-08-31T03:50:13.384Z,0
2017-08-31T03:51:13.416Z,0
2017-08-31T03:52:13.127Z,0
2017-08-31T03:53:13.464Z,0
2017-08-31T03:54:13.165Z,0
2017-08-31T03:55:13.517Z,0
2017-08-31T03:56:28.153Z,0
2017-08-31T03:57:28.163Z,0
2017-08-31T03:58:13.281Z,0
2017-08-31T03:59:28.198Z,0
2017-08-31T04:00:13.344Z,0
2017-08-31T04:02:13.706Z,0
2017-08-31T04:03:28.340Z,0
2017-08-31T04:04:13.439Z,0
2017-08-31T04:05:13.798Z,0
2017-08-31T04:06:13.812Z,0
2017-08-31T04:07:28.414Z,0
2017-08-31T04:08:13.858Z,0
2017-08-31T04:09:28.473Z,0
2017-08-31T04:10:13.912Z,0
2017-08-31T04:11:28.203Z,0
2017-08-31T04:13:13.984Z,0
2017-08-31T04:14:13.047Z,0
2017-08-31T04:15:14.043Z,0
2017-08-31T04:17:14.089Z,0
2017-08-31T04:18:28.407Z,0
2017-08-31T04:19:14.149Z,0
2017-08-31T04:20:14.160Z,0
2017-08-31T04:22:14.208Z,0
2017-08-31T04:23:14.243Z,0
2017-08-31T04:24:14.244Z,0
2017-08-31T04:25:14.298Z,0
2017-08-31T04:26:14.300Z,0
2017-08-31T04:27:14.318Z,0
2017-08-31T04:28:14.046Z,0
2017-08-31T04:29:14.403Z,0
2017-08-31T04:30:13.775Z,0
2017-08-31T04:32:14.475Z,0
2017-08-31T04:33:14.178Z,5
2017-08-31T04:34:29.125Z,5
2017-08-31T04:35:14.207Z,5
2017-08-31T04:36:14.267Z,5
2017-08-31T04:37:14.590Z,5
2017-08-31T04:38:28.604Z,5
2017-08-31T04:39:29.249Z,5
2017-08-31T04:40:14.648Z,5
2017-08-31T04:41:29.312Z,5
2017-08-31T04:42:14.683Z,5
2017-08-31T04:43:29.360Z,5
2017-08-31T04:44:14.768Z,5
2017-08-31T04:45:14.783Z,5
2017-08-31T04:46:14.827Z,10
2017-08-31T04:47:14.539Z,10
2017-08-31T04:48:14.856Z,10
2017-08-31T04:49:14.917Z,10
2017-08-31T04:50:29.209Z,10
2017-08-31T04:51:14.684Z,10
2017-08-31T04:52:14.648Z,15
2017-08-31T04:53:14.696Z,15
2017-08-31T04:54:14.723Z,15
2017-08-31T04:55:14.750Z,15
2017-08-31T04:56:15.065Z,20
2017-08-31T04:57:14.780Z,20
2017-08-31T04:58:15.122Z,20
2017-08-31T04:59:14.849Z,25
2017-08-31T05:00:14.875Z,25
2017-08-31T05:01:14.892Z,25
2017-08-31T05:02:44.152Z,30
2017-08-31T05:03:14.318Z,30
2017-08-31T05:04:14.963Z,30
2017-08-31T05:05:15.308Z,35
2017-08-31T05:06:29.632Z,35
2017-08-31T05:07:29.679Z,35
2017-08-31T05:08:15.056Z,40
2017-08-31T05:09:15.400Z,40
2017-08-31T05:10:29.728Z,40
2017-08-31T05:11:15.471Z,45
2017-08-31T05:12:15.493Z,45
2017-08-31T05:13:15.536Z,45
2017-08-31T05:14:15.519Z,45
2017-08-31T05:15:15.236Z,50
2017-08-31T05:16:14.957Z,50
2017-08-31T05:17:29.924Z,55
2017-08-31T05:18:30.237Z,60
2017-08-31T05:19:15.349Z,65
2017-08-31T05:20:15.377Z,70
2017-08-31T05:21:30.326Z,75
2017-08-31T05:22:30.363Z,75
2017-08-31T05:23:15.453Z,80
2017-08-31T05:24:15.820Z,85
2017-08-31T05:25:30.407Z,90
2017-08-31T05:26:15.544Z,90
2017-08-31T05:27:15.862Z,90
2017-08-31T05:28:15.907Z,90
2017-08-31T05:29:15.603Z,95
2017-08-31T05:30:15.974Z,95
2017-08-31T05:31:30.605Z,95
2017-08-31T05:32:16.001Z,100
2017-08-31T05:34:30.668Z,105
2017-08-31T05:35:16.085Z,110
2017-08-31T05:36:15.488Z,115
2017-08-31T05:37:16.159Z,120
2017-08-31T05:38:30.461Z,130
2017-08-31T05:39:16.171Z,140
2017-08-31T05:40:30.825Z,145
2017-08-31T05:41:16.234Z,150
2017-08-31T05:42:16.253Z,135
2017-08-31T05:43:16.001Z,120
2017-08-31T05:44:15.999Z,115
2017-08-31T05:45:30.946Z,110
2017-08-31T05:46:16.428Z,110
2017-08-31T05:47:16.404Z,110
2017-08-31T05:48:16.420Z,110
2017-08-31T05:49:16.428Z,110
2017-08-31T05:50:16.477Z,115
2017-08-31T05:51:16.465Z,120
2017-08-31T05:52:16.527Z,125
2017-08-31T05:53:31.166Z,120
2017-08-31T05:54:31.203Z,120
2017-08-31T05:56:30.939Z,140
2017-08-31T05:57:16.654Z,150
2017-08-31T05:58:31.277Z,170
2017-08-31T05:59:16.697Z,185
2017-08-31T06:00:16.733Z,250
2017-08-31T06:01:16.775Z,340
2017-08-31T06:02:16.793Z,295
2017-08-31T06:03:31.426Z,220
2017-08-31T06:04:16.535Z,210
2017-08-31T06:05:16.852Z,320
2017-08-31T06:06:31.532Z,265
2017-08-31T06:07:16.910Z,315
2017-08-31T06:08:16.332Z,390
2017-08-31T06:09:16.657Z,335
2017-08-31T06:10:16.674Z,430
2017-08-31T06:11:16.730Z,355
2017-08-31T06:12:16.737Z,265
2017-08-31T06:13:31.680Z,365
2017-08-31T06:14:16.505Z,520
2017-08-31T06:15:16.495Z,600
2017-08-31T06:16:16.874Z,630
2017-08-31T06:17:17.169Z,650
2017-08-31T06:18:16.918Z,550
2017-08-31T06:19:16.951Z,365
2017-08-31T06:20:17.290Z,580
2017-08-31T06:21:17.001Z,630
2017-08-31T06:22:17.352Z,615
2017-08-31T06:23:17.351Z,585
2017-08-31T06:24:17.083Z,600
2017-08-31T06:25:31.741Z,575
2017-08-31T06:26:17.459Z,555
2017-08-31T06:27:17.175Z,535
2017-08-31T06:28:17.255Z,515
2017-08-31T06:29:32.180Z,500
2017-08-31T06:30:17.560Z,495
2017-08-31T06:31:17.313Z,475
2017-08-31T06:32:17.656Z,480
2017-08-31T06:33:32.305Z,465
2017-08-31T06:34:17.400Z,465
2017-08-31T06:35:17.753Z,485
2017-08-31T06:36:17.759Z,485
2017-08-31T06:37:17.509Z,470
2017-08-31T06:38:18.110Z,445
2017-08-31T06:39:17.871Z,345
2017-08-31T06:40:17.894Z,300
2017-08-31T06:41:32.262Z,325
2017-08-31T06:42:17.659Z,360
2017-08-31T06:43:18.023Z,450
2017-08-31T06:44:17.719Z,565
2017-08-31T06:45:17.764Z,635
2017-08-31T06:46:17.788Z,425
2017-08-31T06:47:18.141Z,425
2017-08-31T06:48:17.884Z,555
2017-08-31T06:49:18.216Z,850
2017-08-31T06:50:18.249Z,865
2017-08-31T06:51:18.261Z,800
2017-08-31T06:52:18.316Z,850
2017-08-31T06:53:18.022Z,900
2017-08-31T06:54:18.399Z,935
2017-08-31T06:55:17.767Z,935
2017-08-31T06:56:18.136Z,855
2017-08-31T06:58:18.170Z,795
2017-08-31T06:59:18.214Z,550
2017-08-31T07:00:18.242Z,395
2017-08-31T07:01:18.595Z,695
2017-08-31T07:02:18.645Z,880
2017-08-31T07:03:18.676Z,890
2017-08-31T07:04:18.699Z,835
2017-08-31T07:05:18.717Z,765
2017-08-31T07:06:18.781Z,875
2017-08-31T07:07:18.792Z,810
2017-08-31T07:08:18.840Z,815
2017-08-31T07:09:18.869Z,770
2017-08-31T07:10:18.592Z,805
2017-08-31T07:11:33.560Z,920
2017-08-31T07:12:18.655Z,895
2017-08-31T07:13:33.624Z,895
2017-08-31T07:14:19.040Z,915
2017-08-31T07:15:19.081Z,915
2017-08-31T07:16:18.797Z,955
2017-08-31T07:17:19.157Z,945
2017-08-31T07:18:18.873Z,880
2017-08-31T07:19:19.216Z,940
2017-08-31T07:20:48.467Z,970
2017-08-31T07:21:19.240Z,945
2017-08-31T07:22:19.315Z,900
2017-08-31T07:23:19.327Z,870
2017-08-31T07:24:18.763Z,880
2017-08-31T07:25:19.413Z,955
2017-08-31T07:26:19.468Z,945
2017-08-31T07:27:34.086Z,925
2017-08-31T07:28:33.839Z,910
2017-08-31T07:29:19.565Z,905
2017-08-31T07:30:19.272Z,890
2017-08-31T07:31:19.629Z,820
2017-08-31T07:32:19.668Z,890
2017-08-31T07:33:19.388Z,865
2017-08-31T07:34:19.758Z,880
2017-08-31T07:35:34.382Z,880
2017-08-31T07:36:19.497Z,860
2017-08-31T07:37:19.833Z,890
2017-08-31T07:38:34.478Z,880
2017-08-31T07:39:19.910Z,850
2017-08-31T07:40:19.327Z,835
2017-08-31T07:41:34.586Z,825
2017-08-31T07:42:20.040Z,810
2017-08-31T07:43:20.034Z,850
2017-08-31T07:45:20.128Z,890
2017-08-31T07:46:19.868Z,905
2017-08-31T07:47:20.193Z,920
2017-08-31T07:48:20.247Z,905
2017-08-31T07:49:20.289Z,865
2017-08-31T07:50:34.935Z,855
2017-08-31T07:52:20.384Z,820
2017-08-31T07:53:20.429Z,825
2017-08-31T07:54:20.148Z,810
2017-08-31T07:56:20.208Z,775
2017-08-31T07:58:20.319Z,780
2017-08-31T07:59:20.335Z,745
2017-08-31T08:00:35.276Z,635
2017-08-31T08:01:35.320Z,760
2017-08-31T08:02:20.751Z,765
2017-08-31T08:05:20.514Z,735
2017-08-31T08:06:20.897Z,725
2017-08-31T08:07:21.135Z,745
2017-08-31T08:08:20.665Z,755
2017-08-31T08:09:20.995Z,715
2017-08-31T08:10:35.637Z,720
2017-08-31T08:11:21.079Z,730
2017-08-31T08:13:21.140Z,715
2017-08-31T08:14:20.846Z,695
2017-08-31T08:15:21.200Z,690
2017-08-31T08:16:35.540Z,675
2017-08-31T08:17:21.291Z,710
2017-08-31T08:18:21.309Z,700
2017-08-31T08:19:21.035Z,685
2017-08-31T08:20:21.396Z,665
2017-08-31T08:21:21.435Z,650
2017-08-31T08:22:21.139Z,645
2017-08-31T08:23:21.507Z,630
2017-08-31T08:24:21.219Z,630
2017-08-31T08:25:21.595Z,620
2017-08-31T08:26:21.612Z,610
2017-08-31T08:28:21.649Z,605
2017-08-31T08:30:21.775Z,595
2017-08-31T08:31:36.081Z,580
2017-08-31T08:33:21.553Z,570
2017-08-31T08:34:36.511Z,565
2017-08-31T08:35:21.616Z,555
2017-08-31T08:36:21.653Z,545
2017-08-31T08:37:36.634Z,540
2017-08-31T08:38:22.042Z,535
2017-08-31T08:39:21.809Z,530
2017-08-31T08:40:21.792Z,525
2017-08-31T08:41:22.149Z,515
2017-08-31T08:42:21.856Z,510
2017-08-31T08:43:36.809Z,500
2017-08-31T08:44:36.879Z,490
2017-08-31T08:45:36.905Z,490
2017-08-31T08:46:22.032Z,490
2017-08-31T08:47:22.368Z,485
2017-08-31T08:50:22.474Z,480
2017-08-31T08:51:37.108Z,475
2017-08-31T08:52:22.549Z,465
2017-08-31T08:53:22.557Z,450
2017-08-31T08:54:22.607Z,450
2017-08-31T08:55:22.654Z,450
2017-08-31T08:56:22.703Z,470
2017-08-31T08:57:22.741Z,465
2017-08-31T08:58:22.490Z,455
2017-08-31T08:59:22.805Z,335
2017-08-31T09:00:22.812Z,255
2017-08-31T09:01:22.887Z,240
2017-08-31T09:02:22.893Z,455
2017-08-31T09:03:37.239Z,460
2017-08-31T09:04:22.988Z,460
2017-08-31T09:06:37.645Z,455
2017-08-31T09:07:37.362Z,245
2017-08-31T09:09:23.146Z,245
2017-08-31T09:10:23.194Z,260
2017-08-31T09:11:23.234Z,235
2017-08-31T09:12:23.266Z,235
2017-08-31T09:13:37.891Z,225
2017-08-31T09:14:37.909Z,240
2017-08-31T09:15:37.979Z,245
2017-08-31T09:16:23.379Z,230
2017-08-31T09:17:23.436Z,280
2017-08-31T09:18:23.465Z,210
2017-08-31T09:19:38.124Z,210
2017-08-31T09:20:23.220Z,380
2017-08-31T09:21:23.592Z,240
2017-08-31T09:22:38.198Z,265
2017-08-31T09:23:23.642Z,370
2017-08-31T09:25:23.386Z,330
2017-08-31T09:26:38.055Z,240
2017-08-31T09:27:23.446Z,245
2017-08-31T09:29:23.214Z,245
2017-08-31T09:30:23.883Z,215
2017-08-31T09:31:23.912Z,315
2017-08-31T09:32:23.307Z,215
2017-08-31T09:33:23.661Z,210
2017-08-31T09:35:38.333Z,195
2017-08-31T09:36:24.083Z,195
2017-08-31T09:37:23.795Z,195
2017-08-31T09:38:24.160Z,315
2017-08-31T09:39:23.859Z,335
2017-08-31T09:40:38.883Z,235
2017-08-31T09:41:23.924Z,250
2017-08-31T09:42:24.278Z,350
2017-08-31T09:43:24.017Z,355
2017-08-31T09:45:24.077Z,350
2017-08-31T09:46:24.105Z,350
2017-08-31T09:47:38.727Z,230
2017-08-31T09:48:24.183Z,230
2017-08-31T09:49:24.510Z,340
2017-08-31T09:50:24.532Z,250
2017-08-31T09:51:53.864Z,355
2017-08-31T09:52:24.279Z,360
2017-08-31T09:53:24.656Z,250
2017-08-31T09:54:24.354Z,355
2017-08-31T09:55:24.728Z,360
2017-08-31T09:56:24.741Z,360
2017-08-31T09:57:24.150Z,355
2017-08-31T09:58:39.111Z,250
2017-08-31T09:59:24.505Z,215
2017-08-31T10:00:24.552Z,200
2017-08-31T10:01:24.888Z,200
2017-08-31T10:02:24.643Z,250
2017-08-31T10:03:24.989Z,280
2017-08-31T10:04:24.391Z,260
2017-08-31T10:05:24.716Z,355
2017-08-31T10:06:24.786Z,255
2017-08-31T10:07:39.426Z,245
2017-08-31T10:08:39.770Z,230
2017-08-31T10:09:25.253Z,220
2017-08-31T10:10:24.891Z,210
2017-08-31T10:11:24.931Z,190
2017-08-31T10:12:25.288Z,180
2017-08-31T10:13:39.920Z,200
2017-08-31T10:14:25.047Z,215
2017-08-31T10:15:25.046Z,215
2017-08-31T10:16:25.404Z,205
2017-08-31T10:17:39.741Z,185
2017-08-31T10:18:25.173Z,170
2017-08-31T10:19:25.211Z,175
2017-08-31T10:20:25.276Z,190
2017-08-31T10:21:25.581Z,190
2017-08-31T10:22:25.285Z,205
2017-08-31T10:23:40.274Z,205
2017-08-31T10:24:25.371Z,200
2017-08-31T10:25:25.709Z,175
2017-08-31T10:26:25.735Z,160
2017-08-31T10:27:25.153Z,140
2017-08-31T10:28:25.795Z,115
2017-08-31T10:30:25.902Z,100
2017-08-31T10:31:25.919Z,100
2017-08-31T10:32:40.249Z,95
2017-08-31T10:33:25.968Z,95
2017-08-31T10:35:25.769Z,90
2017-08-31T10:36:25.431Z,100
2017-08-31T10:37:25.802Z,130
2017-08-31T10:38:40.454Z,145
2017-08-31T10:39:26.147Z,150
2017-08-31T10:40:25.587Z,165
2017-08-31T10:41:25.611Z,175
2017-08-31T10:42:40.890Z,180
2017-08-31T10:43:26.281Z,185
2017-08-31T10:44:25.708Z,195
2017-08-31T10:45:26.060Z,185
2017-08-31T10:46:26.377Z,170
2017-08-31T10:47:26.116Z,160
2017-08-31T10:48:26.443Z,155
2017-08-31T10:50:26.488Z,145
2017-08-31T10:51:26.228Z,150
2017-08-31T10:52:25.625Z,145
2017-08-31T10:53:26.304Z,145
2017-08-31T10:54:41.240Z,140
2017-08-31T10:55:26.057Z,140
2017-08-31T10:56:26.702Z,145
2017-08-31T10:57:26.390Z,145
2017-08-31T10:58:26.750Z,155
2017-08-31T10:59:26.479Z,170
2017-08-31T11:00:26.504Z,180
2017-08-31T11:01:26.873Z,180
2017-08-31T11:02:26.421Z,175
2017-08-31T11:03:26.907Z,170
2017-08-31T11:04:27.406Z,170
2017-08-31T11:06:41.745Z,195
2017-08-31T11:07:27.054Z,205
2017-08-31T11:08:27.051Z,240
2017-08-31T11:09:27.192Z,285
2017-08-31T11:10:41.930Z,230
2017-08-31T11:11:27.368Z,215
2017-08-31T11:12:27.326Z,210
2017-08-31T11:13:27.345Z,205
2017-08-31T11:14:27.266Z,200
2017-08-31T11:15:41.588Z,200
2017-08-31T11:16:27.598Z,220
2017-08-31T11:17:27.698Z,220
2017-08-31T11:18:27.607Z,205
2017-08-31T11:19:27.513Z,205
2017-08-31T11:20:27.718Z,200
2017-08-31T11:21:26.965Z,235
2017-08-31T11:22:27.721Z,240
2017-08-31T11:23:27.644Z,260
2017-08-31T11:24:42.308Z,265
2017-08-31T11:25:27.657Z,255
2017-08-31T11:26:42.368Z,235
2017-08-31T11:28:28.208Z,215
2017-08-31T11:29:28.572Z,200
2017-08-31T11:30:42.805Z,190
2017-08-31T11:31:28.596Z,205
2017-08-31T11:32:28.092Z,195
2017-08-31T11:34:28.764Z,180
2017-08-31T11:35:28.393Z,210
2017-08-31T11:36:28.531Z,170
2017-08-31T11:37:28.654Z,200
2017-08-31T11:38:27.819Z,210
2017-08-31T11:39:28.249Z,175
2017-08-31T11:40:28.075Z,170
2017-08-31T11:41:28.110Z,170
2017-08-31T11:42:42.849Z,170
2017-08-31T11:43:28.167Z,205
2017-08-31T11:44:28.280Z,175
2017-08-31T11:45:28.332Z,170
2017-08-31T11:46:42.605Z,165
2017-08-31T11:48:28.128Z,160
2017-08-31T11:49:28.035Z,175
2017-08-31T11:50:28.200Z,175
2017-08-31T11:51:28.112Z,200
2017-08-31T11:52:28.254Z,175
2017-08-31T11:53:28.176Z,215
2017-08-31T11:54:28.199Z,165
2017-08-31T11:55:28.040Z,160
2017-08-31T11:56:28.141Z,150
2017-08-31T11:57:28.295Z,165
2017-08-31T11:59:28.776Z,175
2017-08-31T12:00:42.389Z,220
2017-08-31T12:01:28.832Z,210
2017-08-31T12:02:29.021Z,200
2017-08-31T12:03:29.006Z,190
2017-08-31T12:04:28.194Z,185
2017-08-31T12:05:28.236Z,185
2017-08-31T12:06:42.854Z,175
2017-08-31T12:07:28.288Z,175
2017-08-31T12:08:27.688Z,175
2017-08-31T12:09:28.382Z,175
2017-08-31T12:10:28.166Z,170
2017-08-31T12:12:28.761Z,170
2017-08-31T12:13:43.714Z,175
2017-08-31T12:14:29.344Z,180
2017-08-31T12:15:29.176Z,185
2017-08-31T12:16:28.890Z,175
2017-08-31T12:17:29.016Z,185
2017-08-31T12:18:29.429Z,185
2017-08-31T12:19:29.004Z,190
2017-08-31T12:20:28.923Z,190
2017-08-31T12:21:29.250Z,160
2017-08-31T12:22:29.536Z,180
2017-08-31T12:23:29.108Z,165
2017-08-31T12:24:29.561Z,140
2017-08-31T12:25:29.283Z,175
2017-08-31T12:26:29.617Z,195
2017-08-31T12:27:29.466Z,135
2017-08-31T12:28:29.139Z,135
2017-08-31T12:29:29.690Z,145
2017-08-31T12:30:29.741Z,195
2017-08-31T12:31:29.761Z,205
2017-08-31T12:32:29.728Z,205
2017-08-31T12:33:29.721Z,205
2017-08-31T12:34:29.444Z,205
2017-08-31T12:35:29.805Z,165
2017-08-31T12:36:29.812Z,155
2017-08-31T12:37:29.921Z,160
2017-08-31T12:38:29.869Z,175
2017-08-31T12:39:29.913Z,175
2017-08-31T12:41:29.957Z,240
2017-08-31T12:43:30.115Z,220
2017-08-31T12:44:30.045Z,215
2017-08-31T12:45:44.391Z,155
2017-08-31T12:46:29.904Z,155
2017-08-31T12:47:44.146Z,150
2017-08-31T12:48:29.666Z,175
2017-08-31T12:49:44.602Z,155
2017-08-31T12:50:30.337Z,155
2017-08-31T12:51:30.390Z,160
2017-08-31T12:52:30.400Z,155
2017-08-31T12:53:45.034Z,150
2017-08-31T12:54:30.451Z,145
2017-08-31T12:55:30.102Z,140
2017-08-31T12:56:30.120Z,135
2017-08-31T12:57:29.925Z,130
2017-08-31T12:58:44.777Z,115
2017-08-31T12:59:45.016Z,100
2017-08-31T13:00:30.023Z,90
2017-08-31T13:01:44.874Z,75
2017-08-31T13:02:30.778Z,65
2017-08-31T13:03:30.182Z,65
2017-08-31T13:04:45.506Z,70
2017-08-31T13:05:45.159Z,75
2017-08-31T13:06:30.492Z,80
2017-08-31T13:07:30.850Z,90
2017-08-31T13:08:30.560Z,90
2017-08-31T13:09:30.343Z,90
2017-08-31T13:10:30.319Z,85
2017-08-31T13:11:30.661Z,80
2017-08-31T13:12:44.588Z,70
2017-08-31T13:13:30.325Z,65
2017-08-31T13:15:30.814Z,70
2017-08-31T13:16:30.729Z,75
2017-08-31T13:17:45.659Z,75
2017-08-31T13:18:45.395Z,70
2017-08-31T13:19:30.805Z,70
2017-08-31T13:20:45.784Z,60
2017-08-31T13:21:45.482Z,55
2017-08-31T13:22:45.530Z,50
2017-08-31T13:23:30.913Z,50
2017-08-31T13:24:30.928Z,50
2017-08-31T13:25:46.006Z,55
2017-08-31T13:26:30.982Z,60
2017-08-31T13:27:31.349Z,55
2017-08-31T13:28:31.051Z,55
2017-08-31T13:29:31.107Z,45
2017-08-31T13:30:31.109Z,35
2017-08-31T13:31:31.562Z,25
2017-08-31T13:32:31.353Z,15
2017-08-31T13:33:45.923Z,10
2017-08-31T13:34:31.555Z,10
2017-08-31T13:35:30.946Z,15
2017-08-31T13:36:31.308Z,15
2017-08-31T13:37:31.703Z,20
2017-08-31T13:38:45.957Z,20
2017-08-31T13:39:31.565Z,20
2017-08-31T13:40:31.934Z,20
2017-08-31T13:41:31.757Z,20
2017-08-31T13:42:31.568Z,25
2017-08-31T13:44:31.506Z,30
2017-08-31T13:46:31.711Z,35
2017-08-31T13:47:31.594Z,35
2017-08-31T13:48:46.556Z,30
2017-08-31T13:49:31.638Z,25
2017-08-31T13:50:31.710Z,20
2017-08-31T13:51:32.025Z,20
2017-08-31T13:52:32.153Z,15
2017-08-31T13:53:46.692Z,15
2017-08-31T13:54:32.179Z,15
2017-08-31T13:56:46.766Z,10
2017-08-31T13:58:32.323Z,15
2017-08-31T14:00:32.208Z,15
2017-08-31T14:01:31.951Z,15
2017-08-31T14:02:32.004Z,15
2017-08-31T14:03:47.145Z,20
2017-08-31T14:04:46.985Z,20
2017-08-31T14:05:47.055Z,25
2017-08-31T14:06:32.439Z,25
2017-08-31T14:07:31.823Z,25
2017-08-31T14:08:47.286Z,25
2017-08-31T14:09:46.944Z,30
2017-08-31T14:10:47.154Z,30
2017-08-31T14:11:32.576Z,30
2017-08-31T14:12:32.398Z,30
2017-08-31T14:13:32.397Z,30
2017-08-31T14:14:32.764Z,35
2017-08-31T14:15:32.347Z,40
2017-08-31T14:16:47.408Z,45
2017-08-31T14:17:47.339Z,50
2017-08-31T14:18:32.853Z,50
2017-08-31T14:19:32.476Z,55
2017-08-31T14:21:02.033Z,60
2017-08-31T14:21:32.799Z,55
2017-08-31T14:22:47.271Z,55
2017-08-31T14:23:33.176Z,55
2017-08-31T14:24:33.119Z,50
2017-08-31T14:25:47.287Z,55
2017-08-31T14:26:33.164Z,55
2017-08-31T14:27:32.993Z,60
2017-08-31T14:28:33.022Z,65
2017-08-31T14:30:47.351Z,65
2017-08-31T14:31:32.780Z,70
2017-08-31T14:32:33.126Z,70
2017-08-31T14:33:33.247Z,70
2017-08-31T14:34:33.188Z,70
2017-08-31T14:35:47.819Z,75
2017-08-31T14:36:47.543Z,75
2017-08-31T14:37:32.948Z,75
2017-08-31T14:39:33.597Z,80
2017-08-31T14:40:47.331Z,80
2017-08-31T14:41:33.063Z,80
2017-08-31T14:42:33.078Z,85
2017-08-31T14:43:33.403Z,80
2017-08-31T14:44:33.257Z,75
2017-08-31T14:45:33.463Z,70
2017-08-31T14:46:33.566Z,60
2017-08-31T14:47:48.134Z,55
2017-08-31T14:48:33.565Z,55
2017-08-31T14:49:33.274Z,50
2017-08-31T14:50:33.385Z,50
2017-08-31T14:51:33.742Z,50
2017-08-31T14:52:48.287Z,50
2017-08-31T14:53:33.691Z,50
2017-08-31T14:54:33.713Z,55
2017-08-31T14:55:33.911Z,60
2017-08-31T14:56:33.544Z,60
2017-08-31T14:57:33.796Z,65
2017-08-31T14:58:33.499Z,65
2017-08-31T14:59:48.439Z,65
2017-08-31T15:00:33.872Z,65
2017-08-31T15:01:33.577Z,65
2017-08-31T15:02:33.925Z,65
2017-08-31T15:03:48.565Z,60
2017-08-31T15:04:33.998Z,60
2017-08-31T15:05:48.312Z,60
2017-08-31T15:06:34.116Z,60
2017-08-31T15:07:34.051Z,60
2017-08-31T15:08:48.704Z,60
2017-08-31T15:09:34.012Z,65
2017-08-31T15:10:34.116Z,65
2017-08-31T15:11:34.179Z,70